createdAt,value
2022-12-07T00:00:25.968Z,2.60
2022-12-07T00:01:12.941Z,2.70
2022-12-07T00:01:47.038Z,2.72
2022-12-07T00:02:18.989Z,2.74
2022-12-07T00:02:50.903Z,2.73
2022-12-07T00:03:22.927Z,2.70
2022-12-07T00:04:06.859Z,2.67
2022-12-07T00:04:38.815Z,2.70
2022-12-07T00:05:10.647Z,2.77
2022-12-07T00:05:42.495Z,2.68
2022-12-07T00:06:16.602Z,2.69
2022-12-07T00:06:53.749Z,2.67
2022-12-07T00:07:27.937Z,2.62
2022-12-07T00:08:00.001Z,2.60
2022-12-07T00:08:33.684Z,2.68
2022-12-07T00:09:07.181Z,2.67
2022-12-07T00:09:39.951Z,2.64
2022-12-07T00:10:11.800Z,2.50
2022-12-07T00:10:43.641Z,2.53
2022-12-07T00:11:18.962Z,2.59
2022-12-07T00:11:52.229Z,2.63
2022-12-07T00:12:24.081Z,2.73
2022-12-07T00:12:55.918Z,2.75
2022-12-07T00:13:27.735Z,2.75
2022-12-07T00:14:02.313Z,2.72
2022-12-07T00:14:34.319Z,2.70
2022-12-07T00:15:06.781Z,2.58
2022-12-07T00:15:38.705Z,2.43
2022-12-07T00:16:18.775Z,2.46
2022-12-07T00:16:52.264Z,2.60
2022-12-07T00:17:24.154Z,2.60
2022-12-07T00:17:55.990Z,2.57
2022-12-07T00:18:27.896Z,2.60
2022-12-07T00:19:00.728Z,2.56
2022-12-07T00:19:32.612Z,2.56
2022-12-07T00:20:05.117Z,2.52
2022-12-07T00:20:37.107Z,2.57
2022-12-07T00:21:18.007Z,2.64
2022-12-07T00:21:50.298Z,2.42
2022-12-07T00:22:22.109Z,2.46
2022-12-07T00:22:53.979Z,2.41
2022-12-07T00:23:25.834Z,2.37
2022-12-07T00:23:58.194Z,2.42
2022-12-07T00:24:30.040Z,2.41
2022-12-07T00:25:01.891Z,2.43
2022-12-07T00:25:33.721Z,2.43
2022-12-07T00:26:17.373Z,2.34
2022-12-07T00:26:49.329Z,2.41
2022-12-07T00:27:21.490Z,2.45
2022-12-07T00:27:56.573Z,2.46
2022-12-07T00:28:28.454Z,2.43
2022-12-07T00:29:03.131Z,2.60
2022-12-07T00:29:34.994Z,2.69
2022-12-07T00:30:07.525Z,2.76
2022-12-07T00:30:39.438Z,2.73
2022-12-07T00:31:13.063Z,2.77
2022-12-07T00:31:44.938Z,2.85
2022-12-07T00:32:16.970Z,2.88
2022-12-07T00:32:49.129Z,2.88
2022-12-07T00:33:20.960Z,2.81
2022-12-07T00:33:52.843Z,2.90
2022-12-07T00:34:24.723Z,2.95
2022-12-07T00:34:56.552Z,2.93
2022-12-07T00:35:28.427Z,2.91
2022-12-07T00:36:01.179Z,2.90
2022-12-07T00:36:33.218Z,2.79
2022-12-07T00:37:05.074Z,2.66
2022-12-07T00:37:36.962Z,2.58
2022-12-07T00:38:09.181Z,2.43
2022-12-07T00:38:41.737Z,2.36
2022-12-07T00:39:13.924Z,2.45
2022-12-07T00:39:47.252Z,2.42
2022-12-07T00:40:19.098Z,2.26
2022-12-07T00:41:05.393Z,2.23
2022-12-07T00:41:37.268Z,2.23
2022-12-07T00:42:09.182Z,2.33
2022-12-07T00:42:41.037Z,2.12
2022-12-07T00:43:13.207Z,2.10
2022-12-07T00:43:46.639Z,2.10
2022-12-07T00:44:18.495Z,2.09
2022-12-07T00:44:50.348Z,2.13
2022-12-07T00:45:22.202Z,2.07
2022-12-07T00:45:54.889Z,2.01
2022-12-07T00:46:27.758Z,2.02
2022-12-07T00:46:59.656Z,2.02
2022-12-07T00:47:31.561Z,1.92
2022-12-07T00:48:03.560Z,1.99
2022-12-07T00:48:35.891Z,1.92
2022-12-07T00:49:07.724Z,1.93
2022-12-07T00:49:39.541Z,2.07
2022-12-07T00:50:11.484Z,2.18
2022-12-07T00:50:43.380Z,2.37
2022-12-07T00:51:17.033Z,2.49
2022-12-07T00:51:52.018Z,2.43
2022-12-07T00:52:23.855Z,2.34
2022-12-07T00:52:55.716Z,2.33
2022-12-07T00:53:28.088Z,2.29
2022-12-07T00:54:00.239Z,2.24
2022-12-07T00:54:32.076Z,2.32
2022-12-07T00:55:04.160Z,2.42
2022-12-07T00:55:36.929Z,2.44
2022-12-07T00:56:11.030Z,2.56
2022-12-07T00:56:42.950Z,2.57
2022-12-07T00:57:14.774Z,2.37
2022-12-07T00:57:46.609Z,2.09
2022-12-07T00:58:18.502Z,1.86
2022-12-07T00:58:54.921Z,1.89
2022-12-07T00:59:27.047Z,2.10
2022-12-07T00:59:59.330Z,2.20
2022-12-07T01:00:31.638Z,2.28
2022-12-07T01:01:06.153Z,2.17
2022-12-07T01:01:38.254Z,2.02
2022-12-07T01:02:10.153Z,1.95
2022-12-07T01:02:42.284Z,1.94
2022-12-07T01:03:16.101Z,1.92
2022-12-07T01:03:48.067Z,1.89
2022-12-07T01:04:19.917Z,1.87
2022-12-07T01:04:52.066Z,1.90
2022-12-07T01:05:23.887Z,2.01
2022-12-07T01:05:56.422Z,1.97
2022-12-07T01:06:29.114Z,1.94
2022-12-07T01:07:00.964Z,1.94
2022-12-07T01:07:32.857Z,1.95
2022-12-07T01:08:05.412Z,2.01
2022-12-07T01:08:37.305Z,1.95
2022-12-07T01:09:09.205Z,2.02
2022-12-07T01:09:41.032Z,2.04
2022-12-07T01:10:14.217Z,2.04
2022-12-07T01:10:46.605Z,2.07
2022-12-07T01:11:20.995Z,2.04
2022-12-07T01:11:52.843Z,2.04
2022-12-07T01:12:24.734Z,1.82
2022-12-07T01:12:56.715Z,1.66
2022-12-07T01:13:29.429Z,1.54
2022-12-07T01:14:02.350Z,1.62
2022-12-07T01:14:34.188Z,1.77
2022-12-07T01:15:06.851Z,1.80
2022-12-07T01:15:43.464Z,1.77
2022-12-07T01:16:17.023Z,1.80
2022-12-07T01:16:48.988Z,1.83
2022-12-07T01:17:20.928Z,1.92
2022-12-07T01:17:52.860Z,1.94
2022-12-07T01:18:24.674Z,1.89
2022-12-07T01:18:58.506Z,1.74
2022-12-07T01:19:30.513Z,1.60
2022-12-07T01:20:03.116Z,1.52
2022-12-07T01:20:35.680Z,1.39
2022-12-07T01:21:16.593Z,1.46
2022-12-07T01:21:48.449Z,1.63
2022-12-07T01:22:20.313Z,1.70
2022-12-07T01:22:52.103Z,1.78
2022-12-07T01:23:23.969Z,1.74
2022-12-07T01:23:57.780Z,1.69
2022-12-07T01:24:29.706Z,1.70
2022-12-07T01:25:01.529Z,1.63
2022-12-07T01:25:33.356Z,1.59
2022-12-07T01:26:08.303Z,1.54
2022-12-07T01:26:40.572Z,1.48
2022-12-07T01:27:12.431Z,1.39
2022-12-07T01:27:44.328Z,1.25
2022-12-07T01:28:16.148Z,1.28
2022-12-07T01:28:48.816Z,1.41
2022-12-07T01:29:20.732Z,1.54
2022-12-07T01:29:52.548Z,1.64
2022-12-07T01:30:24.485Z,1.75
2022-12-07T01:31:01.726Z,1.91
2022-12-07T01:31:33.942Z,1.87
2022-12-07T01:32:06.692Z,1.88
2022-12-07T01:32:38.537Z,2.00
2022-12-07T01:33:10.378Z,1.99
2022-12-07T01:33:43.721Z,2.01
2022-12-07T01:34:15.658Z,1.91
2022-12-07T01:34:49.528Z,1.76
2022-12-07T01:35:21.463Z,1.66
2022-12-07T01:35:53.474Z,1.69
2022-12-07T01:36:29.003Z,1.51
2022-12-07T01:37:00.873Z,1.50
2022-12-07T01:37:39.815Z,1.58
2022-12-07T01:38:11.646Z,1.66
2022-12-07T01:38:44.078Z,1.76
2022-12-07T01:39:15.934Z,1.76
2022-12-07T01:39:50.864Z,1.77
2022-12-07T01:40:22.698Z,1.80
2022-12-07T01:40:57.390Z,1.77
2022-12-07T01:41:32.876Z,1.85
2022-12-07T01:42:04.827Z,1.84
2022-12-07T01:42:37.015Z,1.89
2022-12-07T01:43:20.145Z,1.91
2022-12-07T01:44:13.468Z,1.90
2022-12-07T01:45:19.044Z,1.85
2022-12-07T01:45:51.225Z,1.76
2022-12-07T01:46:23.157Z,1.66
2022-12-07T01:47:01.011Z,1.55
2022-12-07T01:47:32.919Z,1.39
2022-12-07T01:48:07.023Z,1.37
2022-12-07T01:48:42.589Z,1.54
2022-12-07T01:49:24.211Z,1.60
2022-12-07T01:49:56.035Z,1.78
2022-12-07T01:50:32.792Z,1.88
2022-12-07T01:51:12.293Z,1.90
2022-12-07T01:51:46.896Z,1.79
2022-12-07T01:52:24.260Z,1.70
2022-12-07T01:53:00.698Z,1.64
2022-12-07T01:53:36.387Z,1.66
2022-12-07T01:54:09.568Z,1.55
2022-12-07T01:54:43.047Z,1.50
2022-12-07T01:55:16.135Z,1.57
2022-12-07T01:55:52.993Z,1.65
2022-12-07T01:56:28.161Z,1.61
2022-12-07T01:57:00.592Z,1.61
2022-12-07T01:57:35.110Z,1.64
2022-12-07T01:58:07.730Z,1.70
2022-12-07T01:58:40.066Z,1.59
2022-12-07T01:59:11.953Z,1.48
2022-12-07T01:59:50.011Z,1.44
2022-12-07T02:00:22.025Z,1.42
2022-12-07T02:00:54.181Z,1.40
2022-12-07T02:01:26.080Z,1.36
2022-12-07T02:01:58.175Z,1.40
2022-12-07T02:02:38.185Z,1.48
2022-12-07T02:03:19.907Z,1.65
2022-12-07T02:03:52.243Z,1.61
2022-12-07T02:04:24.948Z,1.44
2022-12-07T02:04:58.210Z,1.49
2022-12-07T02:05:30.563Z,1.57
2022-12-07T02:06:03.328Z,1.56
2022-12-07T02:06:37.733Z,1.52
2022-12-07T02:07:09.668Z,1.62
2022-12-07T02:07:41.978Z,1.67
2022-12-07T02:08:15.239Z,1.71
2022-12-07T02:08:47.576Z,1.56
2022-12-07T02:09:19.410Z,1.43
2022-12-07T02:09:51.241Z,1.35
2022-12-07T02:10:29.155Z,1.23
2022-12-07T02:11:05.716Z,1.08
2022-12-07T02:11:37.952Z,1.10
2022-12-07T02:12:09.810Z,1.24
2022-12-07T02:12:41.929Z,1.33
2022-12-07T02:13:16.472Z,1.45
2022-12-07T02:13:49.014Z,1.36
2022-12-07T02:14:20.860Z,1.28
2022-12-07T02:14:53.444Z,1.28
2022-12-07T02:15:57.694Z,1.20
2022-12-07T02:17:03.245Z,1.37
2022-12-07T02:18:03.823Z,1.65
2022-12-07T02:18:53.894Z,1.77
2022-12-07T02:19:44.479Z,1.80
2022-12-07T02:20:34.177Z,1.84
2022-12-07T02:21:27.221Z,1.77
2022-12-07T02:22:23.777Z,1.79
2022-12-07T02:23:16.833Z,1.90
2022-12-07T02:23:48.632Z,1.81
2022-12-07T02:24:26.153Z,1.79
2022-12-07T02:25:16.509Z,1.77
2022-12-07T02:26:15.916Z,1.76
2022-12-07T02:27:09.309Z,1.70
2022-12-07T02:28:08.178Z,1.67
2022-12-07T02:28:46.330Z,1.71
2022-12-07T02:29:28.948Z,1.87
2022-12-07T02:30:09.461Z,1.85
2022-12-07T02:30:48.379Z,1.88
2022-12-07T02:31:24.037Z,1.93
2022-12-07T02:32:22.371Z,2.00
2022-12-07T02:33:05.580Z,1.99
2022-12-07T02:34:10.853Z,1.94
2022-12-07T02:35:23.090Z,2.01
2022-12-07T02:36:21.222Z,2.03
2022-12-07T02:37:01.564Z,2.13
2022-12-07T02:37:38.883Z,2.04
2022-12-07T02:38:22.057Z,2.04
2022-12-07T02:39:05.820Z,2.03
2022-12-07T02:39:55.858Z,2.07
2022-12-07T02:41:00.640Z,2.10
2022-12-07T02:41:37.379Z,2.02
2022-12-07T02:42:17.676Z,2.01
2022-12-07T02:42:56.534Z,2.08
2022-12-07T02:43:32.403Z,2.18
2022-12-07T02:44:16.677Z,2.22
2022-12-07T02:44:49.048Z,2.20
2022-12-07T02:45:23.342Z,2.02
2022-12-07T02:46:02.688Z,2.03
2022-12-07T02:46:42.703Z,2.00
2022-12-07T02:47:18.468Z,1.82
2022-12-07T02:47:54.009Z,1.86
2022-12-07T02:48:27.171Z,1.98
2022-12-07T02:49:02.409Z,2.07
2022-12-07T02:49:34.747Z,2.02
2022-12-07T02:50:07.435Z,2.04
2022-12-07T02:50:39.245Z,2.15
2022-12-07T02:51:11.426Z,2.13
2022-12-07T02:51:46.698Z,2.04
2022-12-07T02:52:18.565Z,1.92
2022-12-07T02:52:50.482Z,1.99
2022-12-07T02:53:36.503Z,2.04
2022-12-07T02:54:14.453Z,2.05
2022-12-07T02:54:46.285Z,2.03
2022-12-07T02:55:24.131Z,2.02
2022-12-07T02:55:56.457Z,1.92
2022-12-07T02:57:07.004Z,2.01
2022-12-07T02:57:56.612Z,2.17
2022-12-07T02:58:56.156Z,2.35
2022-12-07T02:59:36.755Z,2.37
2022-12-07T03:00:18.849Z,2.38
2022-12-07T03:01:09.287Z,2.28
2022-12-07T03:02:14.669Z,2.24
2022-12-07T03:02:52.233Z,2.14
2022-12-07T03:03:25.165Z,2.14
2022-12-07T03:04:19.620Z,2.23
2022-12-07T03:05:13.265Z,2.18
2022-12-07T03:05:45.279Z,2.09
2022-12-07T03:06:29.324Z,2.03
2022-12-07T03:07:12.166Z,2.08
2022-12-07T03:08:07.240Z,2.30
2022-12-07T03:08:52.038Z,2.44
2022-12-07T03:09:36.805Z,2.57
2022-12-07T03:10:24.060Z,2.50
2022-12-07T03:11:06.019Z,2.33
2022-12-07T03:11:55.855Z,2.32
2022-12-07T03:12:38.058Z,2.47
2022-12-07T03:13:24.929Z,2.53
2022-12-07T03:14:06.190Z,2.44
2022-12-07T03:14:46.364Z,2.38
2022-12-07T03:15:34.664Z,2.46
2022-12-07T03:16:06.773Z,2.53
2022-12-07T03:16:49.127Z,2.56
2022-12-07T03:17:26.605Z,2.52
2022-12-07T03:18:01.839Z,2.57
2022-12-07T03:18:52.052Z,2.53
2022-12-07T03:19:26.125Z,2.59
2022-12-07T03:20:02.453Z,2.66
2022-12-07T03:20:38.242Z,2.68
2022-12-07T03:21:15.003Z,2.65
2022-12-07T03:22:01.116Z,2.59
2022-12-07T03:22:35.266Z,2.62
2022-12-07T03:23:10.829Z,2.55
2022-12-07T03:23:45.141Z,2.44
2022-12-07T03:24:22.085Z,2.47
2022-12-07T03:24:58.198Z,2.53
2022-12-07T03:25:30.639Z,2.57
2022-12-07T03:26:04.514Z,2.58
2022-12-07T03:26:40.032Z,2.51
2022-12-07T03:27:17.462Z,2.59
2022-12-07T03:27:56.882Z,2.62
2022-12-07T03:28:35.976Z,2.64
2022-12-07T03:29:12.903Z,2.71
2022-12-07T03:29:50.322Z,2.81
2022-12-07T03:30:28.429Z,2.84
2022-12-07T03:31:00.236Z,2.68
2022-12-07T03:31:39.719Z,2.53
2022-12-07T03:32:26.694Z,2.58
2022-12-07T03:33:06.187Z,2.62
2022-12-07T03:33:47.070Z,2.69
2022-12-07T03:34:25.789Z,2.70
2022-12-07T03:35:07.356Z,2.68
2022-12-07T03:35:44.318Z,2.73
2022-12-07T03:36:36.196Z,2.78
2022-12-07T03:37:20.489Z,2.79
2022-12-07T03:38:17.065Z,2.71
2022-12-07T03:38:56.904Z,2.54
2022-12-07T03:39:38.784Z,2.69
2022-12-07T03:40:35.097Z,2.73
2022-12-07T03:41:15.855Z,2.88
2022-12-07T03:41:47.637Z,2.90
2022-12-07T03:42:19.625Z,2.91
2022-12-07T03:42:52.980Z,2.70
2022-12-07T03:43:24.976Z,2.63
2022-12-07T03:43:57.976Z,2.68
2022-12-07T03:44:30.063Z,2.71
2022-12-07T03:45:04.926Z,2.76
2022-12-07T03:46:07.603Z,2.81
2022-12-07T03:46:54.231Z,2.90
2022-12-07T03:47:59.992Z,2.83
2022-12-07T03:48:31.756Z,2.73
2022-12-07T03:49:14.125Z,2.74
2022-12-07T03:49:51.995Z,2.77
2022-12-07T03:50:32.239Z,2.75
2022-12-07T03:51:22.635Z,2.86
2022-12-07T03:52:03.414Z,2.92
2022-12-07T03:52:40.170Z,2.79
2022-12-07T03:53:28.541Z,2.76
2022-12-07T03:54:09.280Z,2.70
2022-12-07T03:54:53.367Z,2.78
2022-12-07T03:55:32.118Z,2.80
2022-12-07T03:56:04.695Z,2.87
2022-12-07T03:56:37.327Z,2.93
2022-12-07T03:57:10.512Z,2.99
2022-12-07T03:57:45.860Z,3.03
2022-12-07T03:58:20.179Z,3.03
2022-12-07T03:58:53.350Z,3.02
2022-12-07T03:59:26.569Z,3.01
2022-12-07T03:59:59.535Z,2.97
2022-12-07T04:00:31.885Z,3.04
2022-12-07T04:01:04.321Z,3.07
2022-12-07T04:01:36.262Z,3.11
2022-12-07T04:02:08.836Z,3.08
2022-12-07T04:02:41.947Z,3.05
2022-12-07T04:03:13.855Z,3.05
2022-12-07T04:03:45.760Z,3.06
2022-12-07T04:04:18.512Z,3.01
2022-12-07T04:04:50.666Z,3.08
2022-12-07T04:05:23.336Z,3.15
2022-12-07T04:05:55.456Z,3.06
2022-12-07T04:06:27.591Z,3.03
2022-12-07T04:06:59.487Z,3.11
2022-12-07T04:07:31.481Z,3.16
2022-12-07T04:08:03.589Z,3.14
2022-12-07T04:08:35.503Z,3.15
2022-12-07T04:09:07.801Z,3.05
2022-12-07T04:09:40.296Z,3.08
2022-12-07T04:10:12.551Z,3.07
2022-12-07T04:10:44.377Z,3.02
2022-12-07T04:11:16.227Z,2.76
2022-12-07T04:11:48.583Z,2.60
2022-12-07T04:12:20.437Z,2.65
2022-12-07T04:12:52.330Z,2.75
2022-12-07T04:13:24.224Z,2.86
2022-12-07T04:14:14.613Z,2.88
2022-12-07T04:14:46.428Z,2.81
2022-12-07T04:15:18.294Z,2.67
2022-12-07T04:15:50.245Z,2.79
2022-12-07T04:16:22.236Z,2.85
2022-12-07T04:16:59.247Z,2.71
2022-12-07T04:17:31.074Z,2.72
2022-12-07T04:18:03.048Z,2.68
2022-12-07T04:18:34.861Z,2.57
2022-12-07T04:19:06.678Z,2.67
2022-12-07T04:19:38.551Z,2.67
2022-12-07T04:20:11.111Z,2.71
2022-12-07T04:20:42.930Z,2.77
2022-12-07T04:21:14.766Z,2.79
2022-12-07T04:21:47.219Z,2.72
2022-12-07T04:22:19.338Z,2.66
2022-12-07T04:22:51.163Z,2.64
2022-12-07T04:23:22.998Z,2.62
2022-12-07T04:23:54.850Z,2.66
2022-12-07T04:24:27.612Z,2.72
2022-12-07T04:24:59.463Z,2.81
2022-12-07T04:25:31.315Z,2.88
2022-12-07T04:26:03.532Z,2.87
2022-12-07T04:26:35.401Z,2.92
2022-12-07T04:27:07.265Z,2.79
2022-12-07T04:27:39.456Z,2.76
2022-12-07T04:28:11.398Z,2.87
2022-12-07T04:28:43.378Z,2.92
2022-12-07T04:29:16.314Z,2.98
2022-12-07T04:29:48.190Z,3.02
2022-12-07T04:30:19.998Z,3.10
2022-12-07T04:30:51.819Z,3.13
2022-12-07T04:31:23.872Z,2.98
2022-12-07T04:31:55.892Z,2.90
2022-12-07T04:32:27.778Z,2.92
2022-12-07T04:33:00.002Z,2.90
2022-12-07T04:33:31.831Z,2.92
2022-12-07T04:34:04.527Z,2.90
2022-12-07T04:34:36.528Z,2.95
2022-12-07T04:35:09.110Z,2.97
2022-12-07T04:35:43.168Z,3.09
2022-12-07T04:36:15.103Z,3.16
2022-12-07T04:36:48.062Z,3.17
2022-12-07T04:37:19.942Z,3.10
2022-12-07T04:37:51.790Z,3.11
2022-12-07T04:38:24.117Z,3.06
2022-12-07T04:38:56.356Z,2.91
2022-12-07T04:39:29.338Z,2.80
2022-12-07T04:40:01.543Z,2.89
2022-12-07T04:40:33.625Z,2.73
2022-12-07T04:41:09.964Z,2.76
2022-12-07T04:41:41.784Z,2.85
2022-12-07T04:42:16.369Z,2.90
2022-12-07T04:42:48.206Z,2.94
2022-12-07T04:43:20.046Z,2.96
2022-12-07T04:43:52.204Z,2.95
2022-12-07T04:44:25.946Z,2.86
2022-12-07T04:44:57.749Z,2.76
2022-12-07T04:45:29.604Z,2.72
2022-12-07T04:46:01.657Z,2.79
2022-12-07T04:46:33.786Z,2.86
2022-12-07T04:47:05.809Z,2.91
2022-12-07T04:47:37.713Z,2.91
2022-12-07T04:48:09.546Z,2.94
2022-12-07T04:48:41.407Z,3.00
2022-12-07T04:49:14.796Z,3.07
2022-12-07T04:49:46.698Z,3.01
2022-12-07T04:50:18.710Z,2.90
2022-12-07T04:50:51.013Z,2.85
2022-12-07T04:51:28.458Z,2.86
2022-12-07T04:52:00.501Z,2.74
2022-12-07T04:52:32.352Z,2.70
2022-12-07T04:53:04.187Z,2.81
2022-12-07T04:53:36.044Z,2.89
2022-12-07T04:54:08.203Z,2.94
2022-12-07T04:54:40.391Z,2.85
2022-12-07T04:55:12.226Z,2.76
2022-12-07T04:55:45.591Z,2.73
2022-12-07T04:56:18.358Z,2.68
2022-12-07T04:56:50.355Z,2.66
2022-12-07T04:57:22.196Z,2.65
2022-12-07T04:57:54.022Z,2.80
2022-12-07T04:58:25.998Z,2.82
2022-12-07T04:58:57.868Z,2.75
2022-12-07T04:59:29.890Z,2.83
2022-12-07T05:00:02.567Z,2.97
2022-12-07T05:00:35.047Z,3.02
2022-12-07T05:01:06.986Z,2.87
2022-12-07T05:01:39.201Z,2.76
2022-12-07T05:02:11.063Z,2.81
2022-12-07T05:02:42.989Z,2.88
2022-12-07T05:03:14.837Z,2.94
2022-12-07T05:03:46.870Z,2.97
2022-12-07T05:04:19.062Z,2.92
2022-12-07T05:04:50.909Z,2.86
2022-12-07T05:05:23.092Z,2.68
2022-12-07T05:05:54.974Z,2.68
2022-12-07T05:06:27.080Z,2.70
2022-12-07T05:06:58.930Z,2.70
2022-12-07T05:07:30.769Z,2.71
2022-12-07T05:08:02.636Z,2.60
2022-12-07T05:08:35.574Z,2.44
2022-12-07T05:09:07.506Z,2.38
2022-12-07T05:09:39.411Z,2.44
2022-12-07T05:10:11.839Z,2.51
2022-12-07T05:10:43.971Z,2.57
2022-12-07T05:11:34.940Z,2.71
2022-12-07T05:12:06.805Z,2.77
2022-12-07T05:12:38.709Z,2.77
2022-12-07T05:13:10.548Z,2.80
2022-12-07T05:13:42.465Z,2.87
2022-12-07T05:14:19.828Z,3.12
2022-12-07T05:14:51.669Z,3.18
2022-12-07T05:15:23.459Z,3.13
2022-12-07T05:15:55.786Z,3.05
2022-12-07T05:16:27.929Z,3.13
2022-12-07T05:16:59.941Z,3.08
2022-12-07T05:17:31.823Z,3.00
2022-12-07T05:18:04.519Z,2.91
2022-12-07T05:18:36.369Z,2.85
2022-12-07T05:19:08.893Z,2.78
2022-12-07T05:19:40.726Z,2.82
2022-12-07T05:20:12.846Z,2.78
2022-12-07T05:20:45.516Z,2.72
2022-12-07T05:21:17.612Z,2.83
2022-12-07T05:21:49.547Z,2.80
2022-12-07T05:22:21.406Z,2.78
2022-12-07T05:22:53.238Z,2.79
2022-12-07T05:23:25.401Z,2.78
2022-12-07T05:23:57.270Z,2.84
2022-12-07T05:24:29.134Z,2.70
2022-12-07T05:25:01.029Z,2.73
2022-12-07T05:25:32.836Z,2.82
2022-12-07T05:26:04.670Z,2.79
2022-12-07T05:26:36.797Z,2.85
2022-12-07T05:27:08.605Z,2.84
2022-12-07T05:27:40.473Z,2.83
2022-12-07T05:28:12.382Z,2.93
2022-12-07T05:28:44.275Z,2.94
2022-12-07T05:29:17.889Z,3.03
2022-12-07T05:29:51.745Z,3.03
2022-12-07T05:30:25.135Z,3.08
2022-12-07T05:30:59.807Z,3.15
2022-12-07T05:31:32.394Z,3.02
2022-12-07T05:32:04.881Z,2.81
2022-12-07T05:32:36.830Z,2.64
2022-12-07T05:33:08.760Z,2.69
2022-12-07T05:33:40.604Z,2.73
2022-12-07T05:34:12.903Z,2.78
2022-12-07T05:34:45.098Z,2.84
2022-12-07T05:35:17.550Z,2.80
2022-12-07T05:35:49.490Z,2.84
2022-12-07T05:36:21.853Z,2.94
2022-12-07T05:36:53.673Z,3.02
2022-12-07T05:37:25.781Z,3.14
2022-12-07T05:37:58.329Z,3.16
2022-12-07T05:38:30.174Z,3.22
2022-12-07T05:39:02.076Z,3.30
2022-12-07T05:39:33.907Z,3.29
2022-12-07T05:40:06.539Z,3.24
2022-12-07T05:40:38.653Z,3.28
2022-12-07T05:41:34.991Z,3.25
2022-12-07T05:42:15.762Z,3.20
2022-12-07T05:42:47.936Z,3.35
2022-12-07T05:43:19.764Z,3.34
2022-12-07T05:43:51.586Z,3.31
2022-12-07T05:44:23.464Z,3.25
2022-12-07T05:44:55.282Z,3.20
2022-12-07T05:45:27.194Z,3.33
2022-12-07T05:45:59.669Z,3.38
2022-12-07T05:46:31.853Z,3.28
2022-12-07T05:47:03.835Z,3.30
2022-12-07T05:47:35.671Z,3.37
2022-12-07T05:48:07.764Z,3.30
2022-12-07T05:48:39.576Z,3.28
2022-12-07T05:49:11.511Z,3.34
2022-12-07T05:49:43.724Z,3.30
2022-12-07T05:50:15.631Z,3.36
2022-12-07T05:50:50.339Z,3.43
2022-12-07T05:51:22.283Z,3.40
2022-12-07T05:51:54.102Z,3.42
2022-12-07T05:52:26.916Z,3.44
2022-12-07T05:52:58.747Z,3.40
2022-12-07T05:53:30.875Z,3.42
2022-12-07T05:54:02.815Z,3.40
2022-12-07T05:54:35.047Z,3.37
2022-12-07T05:55:07.999Z,3.40
2022-12-07T05:55:39.867Z,3.43
2022-12-07T05:56:11.749Z,3.44
2022-12-07T05:56:43.704Z,3.30
2022-12-07T05:57:15.553Z,3.17
2022-12-07T05:58:07.829Z,3.18
2022-12-07T05:58:58.838Z,3.24
2022-12-07T05:59:30.735Z,3.43
2022-12-07T06:00:04.948Z,3.36
2022-12-07T06:00:48.097Z,3.34
2022-12-07T06:01:23.111Z,3.37
2022-12-07T06:01:57.878Z,3.39
2022-12-07T06:02:29.926Z,3.49
2022-12-07T06:03:01.971Z,3.54
2022-12-07T06:03:33.974Z,3.55
2022-12-07T06:04:06.033Z,3.53
2022-12-07T06:04:40.759Z,3.48
2022-12-07T06:05:12.647Z,3.33
2022-12-07T06:05:44.576Z,3.23
2022-12-07T06:06:16.553Z,3.23
2022-12-07T06:06:48.756Z,3.31
2022-12-07T06:07:20.612Z,3.38
2022-12-07T06:07:52.510Z,3.45
2022-12-07T06:08:24.524Z,3.51
2022-12-07T06:08:56.494Z,3.58
2022-12-07T06:09:29.422Z,3.61
2022-12-07T06:10:01.633Z,3.57
2022-12-07T06:10:33.712Z,3.62
2022-12-07T06:11:25.974Z,3.64
2022-12-07T06:12:17.610Z,3.54
2022-12-07T06:13:00.164Z,3.54
2022-12-07T06:13:34.377Z,3.44
2022-12-07T06:14:06.852Z,3.34
2022-12-07T06:14:38.952Z,3.46
2022-12-07T06:15:11.361Z,3.43
2022-12-07T06:15:43.333Z,3.52
2022-12-07T06:16:15.243Z,3.50
2022-12-07T06:16:47.243Z,3.41
2022-12-07T06:17:19.649Z,3.37
2022-12-07T06:17:51.495Z,3.31
2022-12-07T06:18:23.368Z,3.45
2022-12-07T06:18:55.169Z,3.35
2022-12-07T06:19:27.479Z,3.88
2022-12-07T06:19:59.468Z,3.74
2022-12-07T06:20:31.575Z,4.06
2022-12-07T06:21:03.472Z,4.27
2022-12-07T06:21:35.412Z,4.04
2022-12-07T06:22:08.435Z,4.02
2022-12-07T06:22:40.543Z,3.88
2022-12-07T06:23:12.388Z,3.87
2022-12-07T06:23:44.206Z,3.87
2022-12-07T06:24:17.013Z,3.92
2022-12-07T06:24:49.019Z,3.93
2022-12-07T06:25:20.868Z,3.79
2022-12-07T06:25:52.713Z,3.72
2022-12-07T06:26:24.575Z,3.67
2022-12-07T06:26:56.376Z,3.60
2022-12-07T06:27:28.190Z,3.67
2022-12-07T06:28:00.353Z,3.61
2022-12-07T06:28:32.182Z,3.62
2022-12-07T06:29:04.054Z,3.64
2022-12-07T06:29:36.096Z,3.71
2022-12-07T06:30:09.541Z,3.73
2022-12-07T06:30:41.377Z,3.77
2022-12-07T06:31:15.750Z,3.79
2022-12-07T06:31:47.638Z,3.72
2022-12-07T06:32:19.576Z,3.80
2022-12-07T06:32:51.446Z,3.82
2022-12-07T06:33:23.655Z,3.77
2022-12-07T06:34:03.587Z,3.78
2022-12-07T06:34:35.614Z,3.76
2022-12-07T06:35:07.851Z,3.74
2022-12-07T06:35:39.694Z,3.73
2022-12-07T06:36:11.811Z,3.63
2022-12-07T06:36:44.123Z,3.63
2022-12-07T06:37:16.008Z,3.66
2022-12-07T06:37:48.319Z,3.66
2022-12-07T06:38:20.467Z,3.74
2022-12-07T06:38:53.000Z,3.73
2022-12-07T06:39:27.291Z,3.71
2022-12-07T06:39:59.216Z,3.75
2022-12-07T06:40:31.142Z,3.73
2022-12-07T06:41:03.044Z,3.77
2022-12-07T06:41:34.940Z,3.80
2022-12-07T06:42:06.780Z,3.85
2022-12-07T06:42:38.645Z,3.85
2022-12-07T06:43:10.536Z,3.75
2022-12-07T06:43:43.106Z,3.69
2022-12-07T06:44:15.523Z,3.60
2022-12-07T06:44:47.381Z,3.43
2022-12-07T06:45:19.204Z,3.31
2022-12-07T06:45:51.837Z,3.32
2022-12-07T06:46:24.288Z,3.43
2022-12-07T06:47:18.738Z,3.61
2022-12-07T06:47:49.420Z,3.63
2022-12-07T06:48:21.398Z,3.61
2022-12-07T06:48:53.431Z,3.62
2022-12-07T06:49:25.606Z,3.73
2022-12-07T06:49:57.451Z,3.73
2022-12-07T06:50:29.304Z,3.68
2022-12-07T06:51:01.265Z,3.62
2022-12-07T06:51:36.244Z,3.62
2022-12-07T06:52:08.059Z,3.59
2022-12-07T06:52:39.879Z,3.58
2022-12-07T06:53:11.709Z,3.58
2022-12-07T06:53:43.575Z,3.58
2022-12-07T06:54:18.499Z,3.61
2022-12-07T06:54:50.690Z,3.71
2022-12-07T06:55:22.528Z,3.69
2022-12-07T06:55:54.470Z,3.62
2022-12-07T06:56:26.293Z,3.53
2022-12-07T06:56:58.355Z,3.46
2022-12-07T06:57:30.217Z,3.51
2022-12-07T06:58:03.473Z,3.57
2022-12-07T06:58:35.416Z,3.62
2022-12-07T06:59:08.262Z,3.53
2022-12-07T06:59:40.076Z,3.40
2022-12-07T07:00:17.021Z,3.46
2022-12-07T07:00:53.459Z,3.41
2022-12-07T07:01:25.455Z,3.53
2022-12-07T07:01:57.342Z,3.60
2022-12-07T07:02:29.235Z,3.57
2022-12-07T07:03:01.435Z,3.59
2022-12-07T07:03:33.252Z,3.58
2022-12-07T07:04:05.873Z,3.59
2022-12-07T07:04:37.758Z,3.55
2022-12-07T07:05:09.724Z,3.47
2022-12-07T07:05:42.831Z,3.56
2022-12-07T07:06:15.076Z,3.61
2022-12-07T07:06:48.130Z,3.69
2022-12-07T07:07:19.970Z,3.71
2022-12-07T07:08:20.706Z,3.73
2022-12-07T07:08:43.823Z,4.72
2022-12-07T07:09:15.756Z,6.62
2022-12-07T07:09:47.594Z,6.19
2022-12-07T07:10:19.431Z,5.91
2022-12-07T07:10:51.839Z,5.67
2022-12-07T07:11:23.740Z,5.45
2022-12-07T07:11:55.823Z,5.21
2022-12-07T07:12:27.673Z,5.02
2022-12-07T07:12:59.571Z,4.93
2022-12-07T07:13:31.851Z,4.77
2022-12-07T07:14:03.702Z,4.68
2022-12-07T07:14:35.591Z,4.64
2022-12-07T07:15:08.211Z,4.61
2022-12-07T07:15:40.104Z,4.57
2022-12-07T07:16:13.567Z,4.53
2022-12-07T07:16:45.697Z,4.39
2022-12-07T07:17:17.573Z,4.41
2022-12-07T07:17:49.452Z,4.32
2022-12-07T07:18:21.380Z,4.24
2022-12-07T07:18:53.241Z,4.28
2022-12-07T07:19:25.082Z,4.17
2022-12-07T07:19:56.916Z,4.20
2022-12-07T07:20:28.887Z,4.13
2022-12-07T07:21:00.867Z,4.05
2022-12-07T07:21:32.998Z,4.07
2022-12-07T07:22:05.370Z,4.02
2022-12-07T07:22:37.276Z,3.97
2022-12-07T07:23:09.138Z,3.92
2022-12-07T07:23:41.037Z,3.90
2022-12-07T07:24:12.868Z,3.77
2022-12-07T07:24:44.697Z,3.81
2022-12-07T07:25:16.651Z,3.84
2022-12-07T07:25:49.318Z,3.83
2022-12-07T07:26:23.263Z,3.91
2022-12-07T07:26:55.771Z,3.94
2022-12-07T07:27:27.759Z,3.92
2022-12-07T07:27:59.755Z,3.99
2022-12-07T07:28:31.594Z,4.01
2022-12-07T07:29:03.468Z,4.08
2022-12-07T07:29:35.304Z,4.11
2022-12-07T07:30:07.953Z,4.04
2022-12-07T07:30:39.801Z,4.00
2022-12-07T07:31:11.704Z,3.97
2022-12-07T07:31:43.582Z,3.95
2022-12-07T07:32:15.720Z,3.88
2022-12-07T07:32:47.582Z,3.81
2022-12-07T07:33:19.435Z,3.85
2022-12-07T07:33:51.276Z,3.84
2022-12-07T07:34:23.163Z,3.86
2022-12-07T07:34:55.141Z,3.89
2022-12-07T07:35:28.611Z,3.93
2022-12-07T07:36:00.429Z,3.97
2022-12-07T07:36:32.339Z,3.96
2022-12-07T07:37:04.482Z,3.96
2022-12-07T07:37:36.601Z,4.00
2022-12-07T07:38:08.924Z,3.98
2022-12-07T07:38:40.747Z,4.17
2022-12-07T07:39:15.393Z,4.17
2022-12-07T07:39:47.342Z,4.08
2022-12-07T07:40:19.347Z,4.06
2022-12-07T07:40:51.240Z,4.04
2022-12-07T07:41:23.061Z,3.91
2022-12-07T07:41:54.924Z,3.81
2022-12-07T07:42:29.330Z,3.86
2022-12-07T07:43:01.615Z,3.83